Time;durP1;ratioP1;P1;durP2;ratioP2;P2;SDS_P1;SDS_P2;PMS_P1;PMS_P2;Temp;Humidity;BMP_temperature;BMP_pressure;BME280_temperature;BME280_humidity;BME280_pressure;Samples;Min_cycle;Max_cycle;Signal;HPM_P1;HPM_P2
2021/07/29 00:00:26;;;;;;;4.93;2.05;;;17.30;71.90;;;;;;5031615;28;20554;-77
2021/07/29 00:02:51;;;;;;;4.15;1.80;;;17.30;72.10;;;;;;5031892;28;20020;-77
2021/07/29 00:05:17;;;;;;;3.33;1.80;;;17.20;72.00;;;;;;5032221;28;20029;-76
2021/07/29 00:07:42;;;;;;;4.07;1.88;;;17.20;72.10;;;;;;5031119;28;20069;-76
2021/07/29 00:10:09;;;;;;;2.92;2.00;;;17.20;72.00;;;;;;5032467;28;20026;-76
2021/07/29 00:12:34;;;;;;;2.50;1.70;;;17.20;72.20;;;;;;5031586;28;20033;-76
2021/07/29 00:15:00;;;;;;;2.83;1.70;;;17.10;72.20;;;;;;5031496;28;20040;-76
2021/07/29 00:20:17;;;;;;;4.75;2.22;;;17.10;72.00;;;;;;5048944;28;20040;-76
2021/07/29 00:22:44;;;;;;;2.75;1.75;;;17.10;72.00;;;;;;5031589;28;20029;-76
2021/07/29 00:25:13;;;;;;;2.75;1.77;;;17.10;72.00;;;;;;5031586;28;20105;-76
2021/07/29 00:27:40;;;;;;;3.90;2.00;;;17.10;72.00;;;;;;5031038;28;20048;-76
2021/07/29 00:30:07;;;;;;;3.83;1.98;;;17.10;72.10;;;;;;5031549;28;20384;-76
2021/07/29 00:32:33;;;;;;;3.85;1.90;;;17.10;72.10;;;;;;5031444;28;20025;-76
2021/07/29 00:34:59;;;;;;;3.20;1.70;;;17.10;72.10;;;;;;5031626;28;20045;-75
2021/07/29 00:37:24;;;;;;;1.77;1.25;;;17.00;72.00;;;;;;5031200;28;20057;-75
2021/07/29 00:39:50;;;;;;;3.05;1.45;;;17.10;72.00;;;;;;5030961;28;20132;-75
2021/07/29 00:42:16;;;;;;;3.25;1.50;;;17.00;71.90;;;;;;5031281;28;20487;-75
2021/07/29 00:44:41;;;;;;;2.33;1.50;;;17.00;71.90;;;;;;5031263;28;20021;-75
2021/07/29 00:47:07;;;;;;;3.38;1.60;;;17.00;71.90;;;;;;5030840;28;20029;-76
2021/07/29 00:49:36;;;;;;;3.88;1.90;;;17.00;71.90;;;;;;5031550;28;20024;-75
2021/07/29 00:52:02;;;;;;;2.63;1.70;;;17.00;71.90;;;;;;5031344;28;20029;-75
2021/07/29 00:54:28;;;;;;;2.33;1.40;;;17.00;71.90;;;;;;5031278;28;20022;-76
2021/07/29 00:56:54;;;;;;;3.88;1.90;;;17.00;71.90;;;;;;5030916;28;20036;-75
2021/07/29 00:59:23;;;;;;;3.38;1.50;;;16.90;71.90;;;;;;5031346;28;20025;-76
2021/07/29 01:01:48;;;;;;;2.17;1.40;;;16.90;71.90;;;;;;5033690;28;20037;-75
2021/07/29 01:04:14;;;;;;;2.92;1.40;;;16.90;72.00;;;;;;5035424;28;20108;-75
2021/07/29 01:06:40;;;;;;;3.35;1.10;;;16.90;72.10;;;;;;5035201;28;20465;-75
2021/07/29 01:09:09;;;;;;;1.75;1.20;;;16.80;72.10;;;;;;5035214;28;20132;-75
2021/07/29 01:11:44;;;;;;;3.92;1.42;;;16.80;72.10;;;;;;5035417;28;20040;-75
2021/07/29 01:14:10;;;;;;;3.15;1.30;;;16.80;72.20;;;;;;5035159;28;20022;-75
2021/07/29 01:16:36;;;;;;;3.30;1.60;;;16.80;72.30;;;;;;5034917;28;20033;-75
2021/07/29 01:19:05;;;;;;;2.88;1.25;;;16.80;72.60;;;;;;5034803;28;20538;-75
2021/07/29 01:21:31;;;;;;;2.60;1.40;;;16.70;72.50;;;;;;5034893;28;20033;-75
2021/07/29 01:23:57;;;;;;;4.03;1.85;;;16.80;72.50;;;;;;5034677;28;20380;-75
2021/07/29 01:26:25;;;;;;;4.63;1.63;;;16.70;72.60;;;;;;5034332;28;20112;-76
2021/07/29 01:28:51;;;;;;;4.30;1.77;;;16.70;73.10;;;;;;5033348;28;20018;-76
2021/07/29 01:31:16;;;;;;;4.82;2.10;;;16.70;72.70;;;;;;5034633;28;20376;-76
2021/07/29 01:33:43;;;;;;;2.33;1.52;;;16.60;72.80;;;;;;5034908;28;20036;-76
2021/07/29 01:36:08;;;;;;;3.05;1.50;;;16.60;72.70;;;;;;5034519;28;20376;-75
2021/07/29 01:38:34;;;;;;;3.20;1.55;;;16.70;72.70;;;;;;5034744;28;20029;-76
2021/07/29 01:41:02;;;;;;;2.90;1.40;;;16.70;72.70;;;;;;5033341;28;20037;-75
2021/07/29 01:43:30;;;;;;;3.75;1.30;;;16.70;72.70;;;;;;5034294;28;20511;-76
2021/07/29 01:45:56;;;;;;;4.55;1.70;;;16.70;72.70;;;;;;5034197;28;20033;-76
2021/07/29 01:48:21;;;;;;;3.35;1.55;;;16.70;72.60;;;;;;5034451;28;20067;-76
2021/07/29 01:50:47;;;;;;;3.63;1.50;;;16.70;72.60;;;;;;5034443;28;20557;-76
2021/07/29 01:53:12;;;;;;;3.50;1.33;;;16.70;72.70;;;;;;5034486;28;20480;-75
2021/07/29 01:55:42;;;;;;;3.78;1.70;;;16.70;72.60;;;;;;5034145;28;20396;-75
2021/07/29 01:58:09;;;;;;;6.43;1.77;;;16.70;72.70;;;;;;5034265;28;20029;-75
2021/07/29 02:00:35;;;;;;;2.95;1.30;;;16.70;72.80;;;;;;5034451;28;20052;-75
2021/07/29 02:03:02;;;;;;;4.65;1.70;;;16.70;72.70;;;;;;5034172;28;20465;-75
2021/07/29 02:05:28;;;;;;;4.47;1.60;;;16.70;72.60;;;;;;5033957;28;20033;-75
2021/07/29 02:07:53;;;;;;;3.88;1.50;;;16.80;72.60;;;;;;5033513;28;20025;-75
2021/07/29 02:10:19;;;;;;;6.10;1.90;;;16.80;72.60;;;;;;5034266;28;20028;-75
2021/07/29 02:12:45;;;;;;;3.08;1.50;;;16.70;72.70;;;;;;5033493;28;20026;-76
2021/07/29 02:15:10;;;;;;;3.90;1.77;;;16.70;72.80;;;;;;5032775;28;20025;-76
2021/07/29 02:17:36;;;;;;;6.00;2.03;;;16.70;72.80;;;;;;5033266;28;20076;-76
2021/07/29 02:20:01;;;;;;;4.75;1.80;;;16.60;73.00;;;;;;5033519;28;20271;-75
2021/07/29 02:22:27;;;;;;;4.38;1.80;;;16.60;73.10;;;;;;5034324;28;20024;-75
2021/07/29 02:24:53;;;;;;;3.17;1.50;;;16.50;73.20;;;;;;5034047;28;20154;-75
2021/07/29 02:27:19;;;;;;;4.75;1.48;;;16.50;73.30;;;;;;5032965;28;20096;-75
2021/07/29 02:29:44;;;;;;;5.88;1.60;;;16.50;73.40;;;;;;5032253;28;20483;-75
2021/07/29 02:32:10;;;;;;;4.32;1.58;;;16.50;73.40;;;;;;5033469;28;20448;-75
2021/07/29 02:34:35;;;;;;;3.97;1.63;;;16.50;73.40;;;;;;5033833;28;20026;-75
2021/07/29 02:37:01;;;;;;;8.68;2.30;;;16.40;73.40;;;;;;5032948;28;20472;-75
2021/07/29 02:39:26;;;;;;;2.72;1.33;;;16.40;73.50;;;;;;5033332;28;20018;-75
2021/07/29 02:41:52;;;;;;;3.25;1.40;;;16.40;73.50;;;;;;5048596;28;20029;-75
2021/07/29 02:44:18;;;;;;;2.35;1.25;;;16.40;73.50;;;;;;5033478;28;20025;-75
2021/07/29 02:46:44;;;;;;;3.35;1.30;;;16.30;73.60;;;;;;5031596;28;20040;-75
2021/07/29 02:49:09;;;;;;;3.80;1.48;;;16.30;73.70;;;;;;5032039;28;20108;-76
2021/07/29 02:51:35;;;;;;;2.42;1.27;;;16.30;73.70;;;;;;5032712;28;20049;-75
2021/07/29 02:54:00;;;;;;;3.58;1.40;;;16.30;73.80;;;;;;5032047;28;20025;-75
2021/07/29 02:56:26;;;;;;;4.03;1.70;;;16.30;73.80;;;;;;5032497;28;20128;-75
2021/07/29 02:58:51;;;;;;;5.43;1.73;;;16.30;73.90;;;;;;5033350;28;20018;-75
2021/07/29 03:01:17;;;;;;;5.75;1.98;;;16.30;73.90;;;;;;5033344;28;20029;-75
2021/07/29 03:03:44;;;;;;;4.10;1.95;;;16.30;74.10;;;;;;5033090;28;20499;-75
2021/07/29 03:06:10;;;;;;;4.22;1.50;;;16.30;74.10;;;;;;5032459;28;20029;-75
2021/07/29 03:08:36;;;;;;;4.07;1.48;;;16.30;74.10;;;;;;5032856;28;20049;-76
2021/07/29 03:11:02;;;;;;;5.40;2.10;;;16.30;74.00;;;;;;5031676;28;20044;-76
2021/07/29 03:13:28;;;;;;;5.00;1.77;;;16.30;74.10;;;;;;5032897;28;20420;-76
2021/07/29 03:15:53;;;;;;;3.00;1.50;;;16.30;74.10;;;;;;5032336;28;20057;-76
2021/07/29 03:18:19;;;;;;;4.35;1.70;;;16.30;74.10;;;;;;5032586;28;20036;-75
2021/07/29 03:20:45;;;;;;;4.70;1.40;;;16.30;74.10;;;;;;5032923;28;20036;-76
2021/07/29 03:23:11;;;;;;;4.65;1.50;;;16.40;74.00;;;;;;5030922;28;20411;-76
2021/07/29 03:25:37;;;;;;;3.35;1.52;;;16.40;74.00;;;;;;5031210;28;20017;-76
2021/07/29 03:28:04;;;;;;;3.28;1.52;;;16.40;74.00;;;;;;5030794;28;20392;-76
2021/07/29 03:30:30;;;;;;;4.28;1.95;;;16.40;74.00;;;;;;5032420;28;20021;-76
2021/07/29 03:32:55;;;;;;;4.82;1.70;;;16.40;74.10;;;;;;5032375;28;20025;-76
2021/07/29 03:35:21;;;;;;;5.25;1.90;;;16.40;74.10;;;;;;5032672;28;20040;-76
2021/07/29 03:37:46;;;;;;;3.75;1.63;;;16.40;74.10;;;;;;5031627;28;20068;-76
2021/07/29 03:40:12;;;;;;;3.80;1.60;;;16.40;74.30;;;;;;5032074;28;20041;-76
2021/07/29 03:42:38;;;;;;;2.85;1.52;;;16.40;74.30;;;;;;5032222;28;20025;-76
2021/07/29 03:45:04;;;;;;;2.65;1.25;;;16.40;74.20;;;;;;5032294;28;20083;-76
2021/07/29 03:47:29;;;;;;;5.72;1.90;;;16.40;74.30;;;;;;5030431;28;20104;-76
2021/07/29 03:49:55;;;;;;;4.68;1.60;;;16.40;74.40;;;;;;5032186;28;20096;-76
2021/07/29 03:52:21;;;;;;;5.10;1.70;;;16.40;74.30;;;;;;5032112;28;20025;-76
2021/07/29 03:54:50;;;;;;;4.72;1.83;;;16.40;74.30;;;;;;5032032;28;20113;-76
2021/07/29 03:57:16;;;;;;;3.58;1.67;;;16.40;74.40;;;;;;5031768;28;20018;-76
2021/07/29 03:59:41;;;;;;;4.47;1.38;;;16.40;74.40;;;;;;5031966;28;20061;-76
2021/07/29 04:02:09;;;;;;;2.70;1.20;;;16.50;74.50;;;;;;5031961;28;20045;-76
2021/07/29 04:04:37;;;;;;;3.65;1.30;;;16.50;74.40;;;;;;5032385;28;20075;-76
2021/07/29 04:07:04;;;;;;;4.45;1.63;;;16.50;74.40;;;;;;5031319;28;20026;-76
2021/07/29 04:09:29;;;;;;;4.05;1.42;;;16.50;74.50;;;;;;5032170;28;20036;-76
2021/07/29 04:11:54;;;;;;;3.20;1.40;;;16.50;74.50;;;;;;5031894;28;20021;-76
2021/07/29 04:14:20;;;;;;;1.92;1.10;;;16.50;74.60;;;;;;5031859;28;20022;-76
2021/07/29 04:16:45;;;;;;;3.13;1.38;;;16.50;74.60;;;;;;5031022;28;20031;-76
2021/07/29 04:19:11;;;;;;;3.17;1.35;;;16.50;74.80;;;;;;5031796;28;20021;-76
2021/07/29 04:21:36;;;;;;;3.50;0.98;;;16.60;74.90;;;;;;5031974;28;20327;-76
2021/07/29 04:24:02;;;;;;;3.38;1.27;;;16.60;75.00;;;;;;5031857;28;20159;-76
2021/07/29 04:26:27;;;;;;;4.68;1.52;;;16.60;75.00;;;;;;5031247;28;20065;-76
2021/07/29 04:28:53;;;;;;;3.85;1.40;;;16.60;75.10;;;;;;5031553;28;20025;-76
2021/07/29 04:31:18;;;;;;;4.63;1.75;;;16.50;75.10;;;;;;5031319;28;20120;-76
2021/07/29 04:33:44;;;;;;;6.65;2.08;;;16.50;75.30;;;;;;5031822;28;20037;-76
2021/07/29 04:36:09;;;;;;;3.90;1.50;;;16.40;75.90;;;;;;5031137;28;20018;-76
2021/07/29 04:38:35;;;;;;;5.22;1.33;;;16.40;76.20;;;;;;5031179;28;20484;-76
2021/07/29 04:41:04;;;;;;;3.63;1.20;;;16.40;76.20;;;;;;5030022;28;20032;-76
2021/07/29 04:43:30;;;;;;;7.70;1.88;;;16.40;76.30;;;;;;5031737;28;20026;-76
2021/07/29 04:45:59;;;;;;;4.00;1.30;;;16.30;76.40;;;;;;5030928;28;20025;-76
2021/07/29 04:48:25;;;;;;;4.13;1.55;;;16.30;76.70;;;;;;5031563;28;20107;-76
2021/07/29 04:50:50;;;;;;;5.43;1.60;;;16.30;76.90;;;;;;5031529;28;20492;-76
2021/07/29 04:53:16;;;;;;;3.97;1.30;;;16.30;76.90;;;;;;5031502;28;20026;-76
2021/07/29 04:55:41;;;;;;;3.60;1.33;;;16.30;76.90;;;;;;5031162;28;20021;-75
2021/07/29 04:58:08;;;;;;;6.53;2.17;;;16.30;76.90;;;;;;5030990;28;20487;-76
2021/07/29 05:00:33;;;;;;;5.25;1.88;;;16.20;77.00;;;;;;5031768;28;20177;-75
2021/07/29 05:02:59;;;;;;;4.35;1.52;;;16.20;77.20;;;;;;5031381;28;20467;-75
2021/07/29 05:05:24;;;;;;;5.47;1.60;;;16.20;77.40;;;;;;5031435;28;20025;-75
2021/07/29 05:07:51;;;;;;;3.28;1.70;;;16.20;77.50;;;;;;5030948;28;20029;-75
2021/07/29 05:10:17;;;;;;;5.40;1.60;;;16.20;77.60;;;;;;5031241;28;20021;-75
2021/07/29 05:12:43;;;;;;;8.55;2.10;;;16.20;77.60;;;;;;5031479;28;20113;-75
2021/07/29 05:15:08;;;;;;;3.58;1.45;;;16.20;77.70;;;;;;5031142;28;20030;-75
2021/07/29 05:17:34;;;;;;;4.15;1.70;;;16.20;77.60;;;;;;5030713;28;20033;-75
2021/07/29 05:19:59;;;;;;;5.47;1.55;;;16.40;77.50;;;;;;5031124;28;20144;-75
2021/07/29 05:22:25;;;;;;;6.53;1.90;;;16.60;77.00;;;;;;5031000;28;20021;-75
2021/07/29 05:24:50;;;;;;;6.72;1.98;;;16.60;76.70;;;;;;5030961;28;20032;-75
2021/07/29 05:27:16;;;;;;;7.90;1.92;;;16.80;76.80;;;;;;5030391;28;20022;-75
2021/07/29 05:29:41;;;;;;;3.30;1.50;;;17.60;75.80;;;;;;5031148;28;20029;-75
2021/07/29 05:32:08;;;;;;;5.35;1.80;;;18.50;73.40;;;;;;5030940;28;20024;-75
2021/07/29 05:34:33;;;;;;;4.40;1.52;;;19.30;70.90;;;;;;5031027;28;20048;-75
2021/07/29 05:36:59;;;;;;;3.05;1.42;;;20.10;68.70;;;;;;5030581;28;20457;-76
2021/07/29 05:39:26;;;;;;;5.15;1.75;;;20.80;66.70;;;;;;5030211;28;20037;-75
2021/07/29 05:41:51;;;;;;;4.57;1.70;;;21.30;65.10;;;;;;5029466;28;20080;-75
2021/07/29 05:44:17;;;;;;;5.07;1.60;;;21.80;63.70;;;;;;5030730;28;20017;-75
2021/07/29 05:46:42;;;;;;;4.85;1.67;;;21.60;62.40;;;;;;5030562;28;20408;-75
2021/07/29 05:49:08;;;;;;;4.32;1.60;;;20.80;63.70;;;;;;5034536;28;20076;-75
2021/07/29 05:51:33;;;;;;;5.47;1.50;;;20.10;65.60;;;;;;5034467;28;20034;-75
2021/07/29 05:53:58;;;;;;;6.38;1.70;;;19.50;67.40;;;;;;5034644;28;20025;-75
2021/07/29 05:56:24;;;;;;;5.20;1.75;;;19.00;68.80;;;;;;5033988;28;20022;-75
2021/07/29 05:58:49;;;;;;;7.30;1.95;;;18.50;69.90;;;;;;5034146;28;20026;-76
2021/07/29 06:01:15;;;;;;;5.47;2.00;;;18.10;71.10;;;;;;5033658;28;20033;-76
2021/07/29 06:03:41;;;;;;;6.15;1.80;;;17.90;72.00;;;;;;5032598;28;20022;-76
2021/07/29 06:06:06;;;;;;;5.65;1.77;;;17.70;72.70;;;;;;5033667;28;20041;-76
2021/07/29 06:08:32;;;;;;;6.63;2.00;;;17.60;73.10;;;;;;5034274;28;20017;-76
2021/07/29 06:10:57;;;;;;;4.70;1.60;;;17.50;73.40;;;;;;5033638;28;20029;-76
2021/07/29 06:13:23;;;;;;;3.97;1.80;;;17.50;73.70;;;;;;5033725;28;20057;-76
2021/07/29 06:15:48;;;;;;;7.63;1.92;;;17.60;73.60;;;;;;5033179;28;20029;-76
2021/07/29 06:18:14;;;;;;;7.15;2.00;;;17.50;73.70;;;;;;5032594;28;20033;-76
2021/07/29 06:20:41;;;;;;;6.43;1.90;;;17.40;74.00;;;;;;5033827;28;20033;-76
2021/07/29 06:23:07;;;;;;;7.60;2.33;;;17.40;74.10;;;;;;5033761;28;20109;-77
2021/07/29 06:25:32;;;;;;;5.57;2.13;;;17.30;74.40;;;;;;5033686;28;20116;-77
2021/07/29 06:27:58;;;;;;;7.07;2.28;;;17.30;74.60;;;;;;5033357;28;20025;-77
2021/07/29 06:30:23;;;;;;;10.02;2.13;;;17.20;74.60;;;;;;5032330;28;20017;-77
2021/07/29 06:32:49;;;;;;;8.43;2.58;;;17.30;74.80;;;;;;5033563;28;20048;-77
2021/07/29 06:35:14;;;;;;;5.60;2.33;;;18.60;72.70;;;;;;5033614;28;20100;-76
2021/07/29 06:37:40;;;;;;;6.40;2.00;;;19.50;69.80;;;;;;5031516;28;20387;-76
2021/07/29 06:40:06;;;;;;;7.10;2.42;;;20.50;67.20;;;;;;5033179;28;20026;-76
2021/07/29 06:42:32;;;;;;;7.72;2.30;;;21.00;65.50;;;;;;5033342;28;20121;-76
2021/07/29 06:44:58;;;;;;;4.57;2.13;;;20.80;65.00;;;;;;5032134;28;20112;-76
2021/07/29 06:47:24;;;;;;;6.47;2.00;;;20.80;65.10;;;;;;5031499;28;20025;-76
2021/07/29 06:49:50;;;;;;;8.85;2.50;;;21.00;65.30;;;;;;5033234;28;20132;-76
2021/07/29 06:52:16;;;;;;;4.78;2.20;;;21.00;65.30;;;;;;5033485;28;20383;-76
2021/07/29 06:54:42;;;;;;;4.57;2.10;;;20.70;64.90;;;;;;5033493;28;20033;-76
2021/07/29 06:57:08;;;;;;;6.22;2.20;;;20.30;65.50;;;;;;5032601;28;20033;-76
2021/07/29 06:59:34;;;;;;;4.40;1.90;;;20.10;66.50;;;;;;5033083;28;20084;-76
2021/07/29 07:02:00;;;;;;;6.80;2.20;;;19.90;66.80;;;;;;5032840;28;20626;-76
2021/07/29 07:04:26;;;;;;;7.60;2.78;;;19.70;67.00;;;;;;5033004;28;20028;-76
2021/07/29 07:06:52;;;;;;;7.25;2.60;;;19.60;67.40;;;;;;5032672;28;20061;-76
2021/07/29 07:09:18;;;;;;;7.60;2.60;;;19.40;67.60;;;;;;5032973;28;20504;-76
2021/07/29 07:11:43;;;;;;;5.20;2.30;;;19.20;67.50;;;;;;5032945;28;20024;-76
2021/07/29 07:14:09;;;;;;;6.32;2.28;;;19.00;67.90;;;;;;5033012;28;20083;-76
2021/07/29 07:16:35;;;;;;;7.28;2.40;;;19.00;68.10;;;;;;5032407;28;20101;-76
2021/07/29 07:19:00;;;;;;;6.15;2.03;;;18.80;68.40;;;;;;5032630;28;20148;-76
2021/07/29 07:21:26;;;;;;;5.97;2.17;;;18.70;68.70;;;;;;5032697;28;20048;-76
2021/07/29 07:23:52;;;;;;;8.98;2.50;;;18.80;68.80;;;;;;5032661;28;20488;-76
2021/07/29 07:26:20;;;;;;;3.67;1.70;;;18.70;68.90;;;;;;5032256;28;20130;-76
2021/07/29 07:28:46;;;;;;;5.60;1.73;;;18.70;69.00;;;;;;5032803;28;20052;-77
2021/07/29 07:31:12;;;;;;;4.55;1.60;;;18.80;68.80;;;;;;5032791;28;20061;-76
2021/07/29 07:33:37;;;;;;;7.22;1.98;;;19.00;68.50;;;;;;5032389;28;20384;-76
2021/07/29 07:36:03;;;;;;;4.93;1.73;;;19.10;68.10;;;;;;5030895;28;20063;-76
2021/07/29 07:38:29;;;;;;;5.07;1.65;;;19.10;67.90;;;;;;5032259;28;20117;-76
2021/07/29 07:40:54;;;;;;;5.47;1.88;;;19.10;67.80;;;;;;5031949;28;20124;-77
2021/07/29 07:43:20;;;;;;;5.63;2.22;;;19.10;67.70;;;;;;5032537;28;20472;-77
2021/07/29 07:45:48;;;;;;;6.78;2.20;;;19.00;67.60;;;;;;5031750;28;20033;-77
2021/07/29 07:48:13;;;;;;;4.95;1.80;;;19.00;67.50;;;;;;5032339;28;20361;-77
2021/07/29 07:50:40;;;;;;;7.93;2.20;;;18.90;67.50;;;;;;5032292;28;20028;-77
2021/07/29 07:53:05;;;;;;;8.23;2.72;;;18.90;67.60;;;;;;5032169;28;20026;-77
2021/07/29 07:55:31;;;;;;;7.55;2.13;;;19.00;67.40;;;;;;5031938;28;20461;-77
2021/07/29 07:57:57;;;;;;;6.85;2.10;;;19.10;66.90;;;;;;5031809;28;20021;-77
2021/07/29 08:00:22;;;;;;;6.20;2.17;;;19.20;66.50;;;;;;5031897;28;20079;-77
2021/07/29 08:02:48;;;;;;;9.00;2.20;;;19.30;66.20;;;;;;5031953;28;20021;-77
2021/07/29 08:05:14;;;;;;;8.80;2.58;;;19.50;65.90;;;;;;5031903;28;20061;-77
2021/07/29 08:07:39;;;;;;;4.80;2.03;;;19.60;65.10;;;;;;5031557;28;20021;-77
2021/07/29 08:10:05;;;;;;;6.75;2.10;;;19.70;64.50;;;;;;5031358;28;20120;-77
2021/07/29 08:12:31;;;;;;;7.50;2.42;;;19.80;63.90;;;;;;5031745;28;20025;-75
2021/07/29 08:14:56;;;;;;;7.75;2.15;;;19.90;63.60;;;;;;5031907;28;20394;-75
2021/07/29 08:17:22;;;;;;;4.40;1.88;;;20.10;64.10;;;;;;5031494;28;20064;-76
2021/07/29 08:19:47;;;;;;;3.65;1.30;;;20.20;63.40;;;;;;5031950;28;20116;-76
2021/07/29 08:22:13;;;;;;;3.53;1.30;;;20.30;63.20;;;;;;5030399;28;20156;-76
2021/07/29 08:24:38;;;;;;;3.53;1.73;;;20.50;62.70;;;;;;5031641;28;20076;-76
2021/07/29 08:27:04;;;;;;;5.03;1.80;;;20.50;61.10;;;;;;5031364;28;20057;-76
2021/07/29 08:29:30;;;;;;;4.72;1.60;;;20.60;60.90;;;;;;5031769;28;20029;-76
2021/07/29 08:31:58;;;;;;;4.68;1.55;;;20.80;60.80;;;;;;5031525;28;20021;-76
2021/07/29 08:34:24;;;;;;;5.70;1.80;;;20.90;60.50;;;;;;5031788;28;20218;-76
2021/07/29 08:36:49;;;;;;;4.28;1.60;;;20.90;60.00;;;;;;5030895;28;20021;-76
2021/07/29 08:39:15;;;;;;;3.95;1.70;;;20.90;60.10;;;;;;5031405;28;20041;-76
2021/07/29 08:41:41;;;;;;;7.10;2.10;;;21.00;59.70;;;;;;5031367;28;20071;-76
2021/07/29 08:44:07;;;;;;;4.25;1.90;;;20.90;58.60;;;;;;5031387;28;20080;-76
2021/07/29 08:46:35;;;;;;;4.13;2.00;;;20.80;58.60;;;;;;5030838;28;20163;-75
2021/07/29 08:49:02;;;;;;;6.75;1.73;;;20.60;58.60;;;;;;5031310;28;20021;-75
2021/07/29 08:51:28;;;;;;;5.30;1.80;;;20.60;58.80;;;;;;5031589;28;20060;-76
2021/07/29 08:53:56;;;;;;;4.45;1.50;;;20.70;58.50;;;;;;5031202;28;20061;-76
2021/07/29 08:56:24;;;;;;;5.03;1.48;;;20.80;58.10;;;;;;5030891;28;20472;-76
2021/07/29 08:58:51;;;;;;;4.80;1.52;;;20.90;57.80;;;;;;5031379;28;20100;-76
2021/07/29 09:01:16;;;;;;;4.80;1.70;;;20.90;57.40;;;;;;5031441;28;20108;-76
2021/07/29 09:03:44;;;;;;;5.45;1.70;;;20.90;57.50;;;;;;5031163;28;20093;-76
2021/07/29 09:06:14;;;;;;;3.67;1.30;;;21.00;57.80;;;;;;5030898;28;20041;-76
2021/07/29 09:08:50;;;;;;;8.02;1.80;;;21.00;57.40;;;;;;5031016;28;20072;-76
2021/07/29 09:11:29;;;;;;;5.05;1.60;;;20.90;56.90;;;;;;5031384;28;20030;-76
2021/07/29 09:14:14;;;;;;;3.97;1.38;;;20.90;56.70;;;;;;5031078;28;20034;-76
2021/07/29 09:17:03;;;;;;;4.30;1.48;;;20.90;57.30;;;;;;5030546;28;20079;-75
2021/07/29 09:19:36;;;;;;;4.68;1.55;;;21.00;57.00;;;;;;5031345;28;20097;-75
2021/07/29 09:22:15;;;;;;;4.50;1.80;;;21.20;56.90;;;;;;5032299;28;20033;-76
2021/07/29 09:24:56;;;;;;;3.97;1.40;;;21.10;56.10;;;;;;5035003;28;20110;-76
2021/07/29 09:27:22;;;;;;;5.15;1.60;;;21.10;56.30;;;;;;5034068;28;20029;-76
2021/07/29 09:29:48;;;;;;;4.53;1.60;;;21.10;56.50;;;;;;5034979;28;20071;-76
2021/07/29 09:32:16;;;;;;;5.72;1.88;;;21.10;56.50;;;;;;5034705;28;20619;-76
2021/07/29 09:34:47;;;;;;;5.72;1.58;;;21.30;56.50;;;;;;5034720;28;20468;-76
2021/07/29 09:37:14;;;;;;;6.18;1.70;;;21.40;55.50;;;;;;5034024;28;20029;-76
2021/07/29 09:39:40;;;;;;;4.65;1.58;;;21.50;54.20;;;;;;5034510;28;20194;-76
2021/07/29 09:42:15;;;;;;;3.50;1.50;;;21.60;53.70;;;;;;5034573;28;20033;-77
2021/07/29 09:44:45;;;;;;;4.38;1.30;;;21.60;53.10;;;;;;5034517;28;20425;-77
2021/07/29 09:47:11;;;;;;;2.88;1.20;;;21.70;53.20;;;;;;5034062;28;20045;-76
2021/07/29 09:49:38;;;;;;;7.95;1.88;;;21.80;53.10;;;;;;5034417;28;20095;-77
2021/07/29 09:52:05;;;;;;;3.47;1.27;;;21.90;52.50;;;;;;5034552;28;20028;-76
2021/07/29 09:54:30;;;;;;;5.65;1.50;;;21.90;52.90;;;;;;5034427;28;20499;-77
2021/07/29 09:56:56;;;;;;;4.05;1.33;;;21.80;52.30;;;;;;5033786;28;20026;-77
2021/07/29 09:59:21;;;;;;;6.00;1.80;;;21.80;52.90;;;;;;5034314;28;20026;-77
2021/07/29 10:01:50;;;;;;;3.40;1.20;;;21.60;52.30;;;;;;5032934;28;20079;-77
2021/07/29 10:04:23;;;;;;;4.13;1.45;;;21.50;53.10;;;;;;5034086;28;20022;-76
2021/07/29 10:06:50;;;;;;;6.57;1.88;;;21.40;53.80;;;;;;5033297;28;20087;-77
2021/07/29 10:09:18;;;;;;;3.92;1.30;;;21.30;53.80;;;;;;5034099;28;20045;-77
2021/07/29 10:11:47;;;;;;;5.05;1.42;;;21.20;54.10;;;;;;5034356;28;20021;-77
2021/07/29 10:14:12;;;;;;;3.85;1.45;;;21.10;54.50;;;;;;5034410;28;20029;-77
2021/07/29 10:16:48;;;;;;;4.75;1.50;;;21.00;54.50;;;;;;5033486;28;20378;-77
2021/07/29 10:19:15;;;;;;;4.35;1.70;;;20.80;54.40;;;;;;5033784;28;20495;-77
2021/07/29 10:21:43;;;;;;;5.35;1.50;;;20.70;54.80;;;;;;5034030;28;20412;-77
2021/07/29 10:24:09;;;;;;;5.00;1.48;;;20.60;55.50;;;;;;5033866;28;20027;-77
2021/07/29 10:27:01;;;;;;;4.97;1.77;;;20.60;55.70;;;;;;5033019;28;20017;-77
2021/07/29 10:29:29;;;;;;;2.85;1.38;;;20.70;55.80;;;;;;5033565;28;20036;-76
2021/07/29 10:31:57;;;;;;;4.40;1.35;;;20.60;56.10;;;;;;5034012;28;20026;-76
2021/07/29 10:34:30;;;;;;;4.30;1.50;;;20.60;56.80;;;;;;5032191;28;20025;-75
2021/07/29 10:36:57;;;;;;;3.42;1.30;;;20.40;57.30;;;;;;5033020;28;20025;-76
2021/07/29 10:39:23;;;;;;;4.82;1.50;;;20.20;58.30;;;;;;5032989;28;20540;-75
2021/07/29 10:42:00;;;;;;;4.15;1.35;;;20.00;59.60;;;;;;5033469;28;20125;-75
2021/07/29 10:44:31;;;;;;;3.50;1.33;;;20.00;60.40;;;;;;5033507;28;20027;-75
2021/07/29 10:46:57;;;;;;;2.43;1.00;;;20.00;61.10;;;;;;5033017;28;20055;-75
2021/07/29 10:49:40;;;;;;;4.25;1.58;;;19.90;61.90;;;;;;5033656;28;20021;-75
2021/07/29 10:52:09;;;;;;;6.65;1.98;;;19.80;62.60;;;;;;5033073;28;20045;-76
2021/07/29 10:54:39;;;;;;;4.93;1.80;;;19.60;63.20;;;;;;5033245;28;20029;-75
2021/07/29 10:57:09;;;;;;;5.40;1.77;;;19.30;65.00;;;;;;5032827;28;20104;-75
2021/07/29 10:59:35;;;;;;;4.03;1.65;;;18.80;66.70;;;;;;5033085;28;20030;-75
2021/07/29 11:02:05;;;;;;;2.65;1.05;;;18.50;67.50;;;;;;5031824;28;20034;-75
2021/07/29 11:04:50;;;;;;;4.30;1.63;;;18.30;68.40;;;;;;5032044;28;20017;-76
2021/07/29 11:07:15;;;;;;;4.13;1.58;;;18.30;68.70;;;;;;5031201;28;20056;-76
2021/07/29 11:09:41;;;;;;;4.53;1.40;;;18.50;69.00;;;;;;5032939;28;20025;-76
2021/07/29 11:12:13;;;;;;;5.03;1.77;;;18.60;69.00;;;;;;5032821;28;20030;-75
2021/07/29 11:14:39;;;;;;;6.25;1.90;;;18.70;69.70;;;;;;5032961;28;20026;-76
2021/07/29 11:17:05;;;;;;;3.47;1.80;;;18.90;70.20;;;;;;5032342;28;20117;-76
2021/07/29 11:19:45;;;;;;;6.68;2.10;;;19.10;70.00;;;;;;5032512;28;20061;-76
2021/07/29 11:22:11;;;;;;;4.40;2.08;;;19.30;70.00;;;;;;5032972;28;20032;-76
2021/07/29 11:24:38;;;;;;;5.20;2.00;;;19.50;69.60;;;;;;5032730;28;20030;-77
2021/07/29 11:27:07;;;;;;;4.97;2.25;;;19.80;69.70;;;;;;5032201;28;20361;-77
2021/07/29 11:29:33;;;;;;;4.18;1.73;;;20.00;69.40;;;;;;5032615;28;20080;-75
2021/07/29 11:31:59;;;;;;;3.75;1.77;;;20.10;68.90;;;;;;5031235;28;20044;-75
2021/07/29 11:34:32;;;;;;;5.07;2.20;;;20.20;68.70;;;;;;5032312;28;20504;-75
2021/07/29 11:36:58;;;;;;;4.25;1.70;;;20.20;68.00;;;;;;5032038;28;20029;-75
2021/07/29 11:39:25;;;;;;;5.38;1.80;;;20.10;67.20;;;;;;5032380;28;20033;-75
2021/07/29 11:41:56;;;;;;;3.83;1.60;;;20.00;66.70;;;;;;5032322;28;20041;-76
2021/07/29 11:44:23;;;;;;;4.97;1.60;;;20.00;66.30;;;;;;5031795;28;20073;-75
2021/07/29 11:46:55;;;;;;;4.90;1.95;;;20.00;65.70;;;;;;5031570;28;20514;-75
2021/07/29 11:49:22;;;;;;;3.30;1.38;;;19.90;65.80;;;;;;5031013;28;20436;-75
2021/07/29 11:52:07;;;;;;;5.00;1.85;;;20.00;65.90;;;;;;5032348;28;20037;-75
2021/07/29 11:54:32;;;;;;;6.13;1.88;;;19.90;66.10;;;;;;5032314;28;20472;-75
2021/07/29 11:57:02;;;;;;;5.15;1.98;;;19.90;65.70;;;;;;5031825;28;20018;-75
2021/07/29 11:59:38;;;;;;;7.15;2.38;;;20.00;65.80;;;;;;5031914;28;20560;-75
2021/07/29 12:02:05;;;;;;;7.10;2.50;;;20.10;64.40;;;;;;5032059;28;20096;-75
2021/07/29 12:04:37;;;;;;;4.97;2.00;;;20.10;64.10;;;;;;5031638;28;20026;-75
2021/07/29 12:07:03;;;;;;;6.40;1.80;;;20.20;64.10;;;;;;5031373;28;20030;-75
2021/07/29 12:09:31;;;;;;;4.07;1.73;;;20.30;63.70;;;;;;5031840;28;20018;-75
2021/07/29 12:11:57;;;;;;;6.00;1.98;;;20.50;63.90;;;;;;5032090;28;20149;-76
2021/07/29 12:14:23;;;;;;;5.47;1.58;;;20.70;63.70;;;;;;5031936;28;20398;-77
2021/07/29 12:16:50;;;;;;;5.50;2.00;;;20.90;63.60;;;;;;5031287;28;20018;-76
2021/07/29 12:19:17;;;;;;;7.30;2.42;;;21.00;63.20;;;;;;5031962;28;20029;-76
2021/07/29 12:21:43;;;;;;;5.25;2.13;;;21.20;63.20;;;;;;5030368;28;20033;-77
2021/07/29 12:24:10;;;;;;;6.95;2.20;;;21.20;61.80;;;;;;5031498;28;20024;-77
2021/07/29 12:26:35;;;;;;;4.32;1.83;;;21.30;61.50;;;;;;5029614;28;20068;-76
2021/07/29 12:29:01;;;;;;;5.43;1.98;;;21.50;61.30;;;;;;5031552;28;20060;-76
2021/07/29 12:31:31;;;;;;;5.25;1.92;;;21.70;60.90;;;;;;5031602;28;20060;-77
2021/07/29 12:34:00;;;;;;;5.53;2.03;;;21.90;60.00;;;;;;5031726;28;20025;-76
2021/07/29 12:36:44;;;;;;;5.68;2.08;;;22.00;59.20;;;;;;5031100;28;20022;-77
2021/07/29 12:39:10;;;;;;;4.20;1.63;;;22.00;58.10;;;;;;5031135;28;20388;-76
2021/07/29 12:41:38;;;;;;;2.95;1.40;;;22.00;58.20;;;;;;5031540;28;20033;-76
2021/07/29 12:44:13;;;;;;;3.33;1.20;;;21.90;58.00;;;;;;5031192;28;20025;-76
2021/07/29 12:46:40;;;;;;;4.72;1.40;;;21.90;58.30;;;;;;5030793;28;20022;-76
2021/07/29 12:49:06;;;;;;;4.15;1.48;;;21.70;58.60;;;;;;5031539;28;20030;-76